Time;durP1;ratioP1;P1;durP2;ratioP2;P2;SDS_P1;SDS_P2;PMS_P1;PMS_P2;Temp;Humidity;BMP_temperature;BMP_pressure;BME280_temperature;BME280_humidity;BME280_pressure;Samples;Min_cycle;Max_cycle;Signal;HPM_P1;HPM_P2
2021/09/24 00:00:07;;;;;;;16.73;6.13;;;13.30;99.90;;;;;;6185574;23;20190;-72
2021/09/24 00:02:34;;;;;;;20.30;4.13;;;13.30;99.90;;;;;;6185030;23;20210;-73
2021/09/24 00:05:02;;;;;;;24.95;5.50;;;13.30;99.90;;;;;;6183498;23;20168;-73
2021/09/24 00:07:29;;;;;;;27.02;5.28;;;13.30;99.90;;;;;;6184278;23;20164;-73
2021/09/24 00:09:57;;;;;;;41.92;7.35;;;13.20;99.90;;;;;;6184042;23;20164;-74
2021/09/24 00:12:25;;;;;;;22.73;6.18;;;13.20;99.90;;;;;;6184411;23;20206;-73
2021/09/24 00:14:53;;;;;;;14.32;4.85;;;13.30;99.90;;;;;;6184510;23;20191;-72
2021/09/24 00:17:20;;;;;;;22.02;6.30;;;13.20;99.90;;;;;;6183375;23;20164;-72
2021/09/24 00:19:47;;;;;;;14.20;4.50;;;13.20;99.90;;;;;;6184578;23;20191;-73
2021/09/24 00:22:14;;;;;;;18.65;4.75;;;13.20;99.90;;;;;;6183947;23;20203;-71
2021/09/24 00:24:42;;;;;;;29.42;5.45;;;13.20;99.90;;;;;;6184441;23;20254;-72
2021/09/24 00:27:11;;;;;;;19.10;6.45;;;13.10;99.90;;;;;;6184136;23;20166;-73
2021/09/24 00:29:38;;;;;;;11.70;4.03;;;13.10;99.90;;;;;;6184431;23;20504;-72
2021/09/24 00:32:05;;;;;;;22.40;5.55;;;13.10;99.90;;;;;;6184300;23;20209;-74
2021/09/24 00:34:33;;;;;;;23.42;5.47;;;13.10;99.90;;;;;;6184388;23;20164;-74
2021/09/24 00:37:00;;;;;;;17.73;6.47;;;13.00;99.90;;;;;;6184041;23;20163;-73
2021/09/24 00:39:28;;;;;;;18.95;5.60;;;12.90;99.90;;;;;;6184412;23;20177;-73
2021/09/24 00:41:55;;;;;;;18.85;4.03;;;12.90;99.90;;;;;;6184812;23;20527;-72
2021/09/24 00:44:28;;;;;;;20.10;4.82;;;12.90;99.90;;;;;;6184925;23;20186;-72
2021/09/24 00:46:55;;;;;;;15.15;5.05;;;12.90;99.90;;;;;;6184214;23;20173;-72
2021/09/24 00:49:22;;;;;;;17.92;5.43;;;12.80;99.90;;;;;;6184304;23;20697;-72
2021/09/24 00:51:50;;;;;;;17.27;4.20;;;12.80;99.90;;;;;;6184195;23;20517;-73
2021/09/24 00:54:17;;;;;;;23.83;5.60;;;12.80;99.90;;;;;;6184114;23;20185;-73
2021/09/24 00:56:45;;;;;;;17.98;4.80;;;12.80;99.90;;;;;;6182903;23;20610;-73
2021/09/24 00:59:12;;;;;;;14.80;4.53;;;12.80;99.90;;;;;;6184372;23;20167;-72
2021/09/24 01:01:41;;;;;;;20.10;5.70;;;12.80;99.90;;;;;;6183985;23;20690;-73
2021/09/24 01:04:08;;;;;;;19.08;5.00;;;12.70;99.90;;;;;;6184510;23;20179;-72
2021/09/24 01:06:37;;;;;;;19.67;7.00;;;12.70;99.90;;;;;;6184079;23;20250;-72
2021/09/24 01:09:04;;;;;;;15.95;5.00;;;12.70;99.90;;;;;;6184440;23;20605;-73
2021/09/24 01:11:32;;;;;;;16.92;5.00;;;12.70;99.90;;;;;;6183990;23;20210;-72
2021/09/24 01:13:59;;;;;;;21.92;4.70;;;12.70;99.90;;;;;;6183653;23;20161;-72
2021/09/24 01:16:26;;;;;;;20.58;6.10;;;12.70;99.90;;;;;;6183113;23;20167;-72
2021/09/24 01:18:55;;;;;;;17.10;6.15;;;12.70;99.90;;;;;;6184348;23;20171;-73
2021/09/24 01:21:23;;;;;;;20.33;5.38;;;12.70;99.90;;;;;;6184328;23;20203;-72
2021/09/24 01:23:51;;;;;;;25.35;5.40;;;12.70;99.90;;;;;;6184357;23;20164;-73
2021/09/24 01:26:18;;;;;;;18.30;6.20;;;12.80;99.90;;;;;;6184399;23;20167;-73
2021/09/24 01:28:46;;;;;;;34.10;6.50;;;12.70;99.90;;;;;;6183890;23;20209;-73
2021/09/24 01:31:14;;;;;;;25.58;6.32;;;12.70;99.90;;;;;;6185702;23;20520;-73
2021/09/24 01:33:44;;;;;;;22.65;6.07;;;12.70;99.90;;;;;;6186553;23;20168;-73
2021/09/24 01:36:11;;;;;;;25.30;6.28;;;12.60;99.90;;;;;;6185130;23;20172;-72
2021/09/24 01:38:40;;;;;;;19.60;6.10;;;12.60;99.90;;;;;;6186497;23;20171;-73
2021/09/24 01:41:08;;;;;;;19.73;6.28;;;12.60;99.90;;;;;;6185302;23;20183;-74
2021/09/24 01:43:37;;;;;;;17.17;5.43;;;12.50;99.90;;;;;;6185140;23;20181;-73
2021/09/24 01:46:06;;;;;;;25.60;5.70;;;12.50;99.90;;;;;;6184281;23;20165;-72
2021/09/24 01:48:33;;;;;;;24.90;7.40;;;12.50;99.90;;;;;;6185638;23;20167;-72
2021/09/24 01:51:00;;;;;;;18.15;6.70;;;12.60;99.90;;;;;;6183715;23;20632;-73
2021/09/24 01:53:28;;;;;;;25.27;6.43;;;12.60;99.90;;;;;;6186520;23;20199;-72
2021/09/24 01:55:56;;;;;;;17.80;5.85;;;12.60;99.90;;;;;;6184666;23;20241;-73
2021/09/24 01:58:23;;;;;;;13.93;5.55;;;12.60;99.90;;;;;;6185474;23;20197;-73
2021/09/24 02:00:51;;;;;;;15.88;5.65;;;12.60;99.90;;;;;;6185563;23;20188;-74
2021/09/24 02:03:18;;;;;;;22.90;5.95;;;12.60;99.90;;;;;;6185902;23;20199;-73
2021/09/24 02:05:45;;;;;;;9.45;5.10;;;12.60;99.90;;;;;;6185074;23;20170;-73
2021/09/24 02:08:12;;;;;;;17.17;7.03;;;12.60;99.90;;;;;;6185332;23;20170;-73
2021/09/24 02:10:39;;;;;;;18.33;6.68;;;12.50;99.90;;;;;;6186056;23;20158;-73
2021/09/24 02:13:08;;;;;;;13.38;6.47;;;12.40;99.90;;;;;;6186249;23;20258;-72
2021/09/24 02:15:35;;;;;;;29.48;7.32;;;12.40;99.90;;;;;;6184667;23;20206;-72
2021/09/24 02:18:02;;;;;;;21.70;5.93;;;12.40;99.90;;;;;;6186292;23;20165;-72
2021/09/24 02:20:30;;;;;;;22.08;7.20;;;12.40;99.90;;;;;;6186222;23;20186;-71
2021/09/24 02:22:57;;;;;;;13.82;5.20;;;12.40;99.90;;;;;;6186896;23;20199;-72
2021/09/24 02:25:24;;;;;;;23.08;5.65;;;12.50;99.90;;;;;;6186550;23;20613;-72
2021/09/24 02:27:51;;;;;;;14.82;5.13;;;12.50;99.90;;;;;;6188245;23;20171;-72
2021/09/24 02:30:20;;;;;;;22.17;6.30;;;12.50;99.90;;;;;;6188461;23;20183;-71
2021/09/24 02:32:49;;;;;;;18.48;4.55;;;12.60;99.90;;;;;;6189156;23;20285;-72
2021/09/24 02:35:16;;;;;;;17.77;6.13;;;12.60;99.90;;;;;;6190746;23;20198;-71
2021/09/24 02:37:43;;;;;;;13.43;4.82;;;12.70;99.90;;;;;;6190855;23;20164;-72
2021/09/24 02:40:11;;;;;;;18.90;5.80;;;12.80;99.90;;;;;;6191093;23;20168;-70
2021/09/24 02:42:38;;;;;;;18.95;7.63;;;12.80;99.90;;;;;;6191153;23;20240;-72
2021/09/24 02:45:06;;;;;;;26.70;6.65;;;12.70;99.90;;;;;;6187495;23;20162;-72
2021/09/24 02:47:34;;;;;;;15.88;4.82;;;12.70;99.90;;;;;;6188644;23;20170;-71
2021/09/24 02:50:02;;;;;;;17.63;6.53;;;12.70;99.90;;;;;;6185539;23;20195;-72
2021/09/24 02:52:29;;;;;;;21.40;5.80;;;12.70;99.90;;;;;;6185217;23;20199;-72
2021/09/24 02:54:56;;;;;;;11.05;4.15;;;12.70;99.90;;;;;;6185066;23;20164;-72
2021/09/24 02:57:23;;;;;;;16.00;4.55;;;12.70;99.90;;;;;;6184603;23;20209;-73
2021/09/24 02:59:51;;;;;;;15.63;4.88;;;12.80;99.90;;;;;;6185177;23;20164;-73
2021/09/24 03:02:18;;;;;;;18.25;5.30;;;12.80;99.90;;;;;;6184873;23;20207;-73
2021/09/24 03:04:46;;;;;;;10.57;4.60;;;12.80;99.90;;;;;;6184743;23;20170;-72
2021/09/24 03:07:13;;;;;;;14.43;4.55;;;12.90;99.90;;;;;;6184729;23;20222;-73
2021/09/24 03:09:42;;;;;;;16.33;5.13;;;12.90;99.90;;;;;;6185003;23;20164;-73
2021/09/24 03:12:09;;;;;;;15.18;3.90;;;12.90;99.90;;;;;;6184856;23;20507;-72
2021/09/24 03:14:37;;;;;;;23.00;4.35;;;13.00;99.90;;;;;;6185429;23;20507;-72
2021/09/24 03:17:04;;;;;;;13.60;4.25;;;13.00;99.90;;;;;;6184103;23;20164;-73
2021/09/24 03:19:31;;;;;;;8.48;3.42;;;13.00;99.90;;;;;;6185347;23;20179;-72
2021/09/24 03:22:00;;;;;;;21.85;5.65;;;13.10;99.90;;;;;;6184959;23;20281;-72
2021/09/24 03:24:27;;;;;;;17.55;3.38;;;13.00;99.90;;;;;;6185385;23;20167;-73
2021/09/24 03:26:54;;;;;;;12.43;3.70;;;13.00;99.90;;;;;;6184562;23;20175;-73
2021/09/24 03:29:22;;;;;;;18.88;4.07;;;13.00;99.90;;;;;;6185264;23;20168;-72
2021/09/24 03:31:49;;;;;;;12.65;3.50;;;12.90;99.90;;;;;;6185741;23;20532;-73
2021/09/24 03:34:16;;;;;;;19.52;5.13;;;12.90;99.90;;;;;;6185965;23;20164;-73
2021/09/24 03:36:43;;;;;;;17.10;4.32;;;12.90;99.90;;;;;;6185501;23;20167;-73
2021/09/24 03:39:14;;;;;;;10.20;4.15;;;12.80;99.90;;;;;;6186621;23;20174;-73
2021/09/24 03:41:43;;;;;;;14.50;6.32;;;12.80;99.90;;;;;;6185806;23;20211;-73
2021/09/24 03:44:11;;;;;;;15.43;3.90;;;12.80;99.90;;;;;;6186726;23;20220;-73
2021/09/24 03:46:38;;;;;;;15.85;5.03;;;12.80;99.90;;;;;;6186570;23;20171;-73
2021/09/24 03:49:07;;;;;;;11.68;4.25;;;12.80;99.90;;;;;;6186727;23;20187;-73
2021/09/24 03:51:34;;;;;;;19.50;4.07;;;12.80;99.90;;;;;;6189198;23;20273;-72
2021/09/24 03:54:01;;;;;;;11.07;4.43;;;12.90;99.90;;;;;;6190130;23;20178;-73
2021/09/24 03:56:30;;;;;;;10.60;3.83;;;12.90;99.90;;;;;;6189941;23;20192;-73
2021/09/24 03:58:57;;;;;;;11.45;4.63;;;13.00;99.90;;;;;;6190609;23;20168;-72
2021/09/24 04:01:24;;;;;;;11.75;4.22;;;13.00;99.90;;;;;;6190262;23;20194;-72
2021/09/24 04:03:51;;;;;;;14.00;3.95;;;13.10;99.90;;;;;;6187630;23;20160;-73
2021/09/24 04:06:19;;;;;;;14.98;4.18;;;13.10;99.90;;;;;;6188600;23;20175;-73
2021/09/24 04:08:46;;;;;;;9.60;4.40;;;13.20;99.90;;;;;;6188341;23;20185;-72
2021/09/24 04:11:13;;;;;;;11.32;4.70;;;13.30;99.90;;;;;;6185150;23;20187;-72
2021/09/24 04:13:42;;;;;;;9.60;4.40;;;13.30;99.90;;;;;;6185162;23;20167;-72
2021/09/24 04:16:09;;;;;;;19.42;5.10;;;13.30;99.90;;;;;;6184777;23;20170;-72
2021/09/24 04:18:36;;;;;;;11.90;5.35;;;13.30;99.90;;;;;;6184477;23;20171;-72
2021/09/24 04:21:03;;;;;;;9.82;4.63;;;13.30;99.90;;;;;;6184455;23;20184;-72
2021/09/24 04:23:30;;;;;;;18.23;6.00;;;13.30;99.90;;;;;;6184809;23;20235;-72
2021/09/24 04:25:58;;;;;;;18.50;4.95;;;13.40;99.90;;;;;;6184026;23;20172;-73
2021/09/24 04:28:25;;;;;;;15.43;4.38;;;13.40;99.90;;;;;;6184694;23;20161;-72
2021/09/24 04:30:54;;;;;;;11.48;4.68;;;13.40;99.90;;;;;;6183966;23;20603;-73
2021/09/24 04:33:22;;;;;;;13.88;4.97;;;13.40;99.90;;;;;;6185392;23;20217;-73
2021/09/24 04:35:49;;;;;;;14.45;5.38;;;13.30;99.90;;;;;;6183981;23;20163;-71
2021/09/24 04:38:16;;;;;;;15.90;5.43;;;13.50;99.90;;;;;;6184605;23;20488;-74
2021/09/24 04:40:43;;;;;;;18.38;5.47;;;13.50;99.90;;;;;;6184086;23;20601;-73
2021/09/24 04:43:11;;;;;;;11.50;3.53;;;13.60;99.90;;;;;;6184547;23;20287;-73
2021/09/24 04:45:38;;;;;;;10.48;4.40;;;13.60;99.90;;;;;;6183807;23;20164;-74
2021/09/24 04:48:07;;;;;;;15.13;4.55;;;13.70;99.90;;;;;;6184473;23;20171;-72
2021/09/24 04:50:34;;;;;;;15.00;4.35;;;13.80;99.90;;;;;;6184286;23;20188;-72
2021/09/24 04:53:02;;;;;;;14.50;4.95;;;13.80;99.90;;;;;;6184327;23;20223;-72
2021/09/24 04:55:30;;;;;;;14.80;5.43;;;13.90;99.90;;;;;;6183800;23;20176;-73
2021/09/24 04:57:57;;;;;;;19.98;4.15;;;13.80;99.90;;;;;;6183723;23;20612;-71
2021/09/24 05:00:25;;;;;;;15.32;5.35;;;13.90;99.90;;;;;;6184030;23;20168;-73
2021/09/24 05:02:52;;;;;;;13.30;4.20;;;14.00;99.90;;;;;;6184393;23;20702;-73
2021/09/24 05:05:20;;;;;;;16.65;4.47;;;14.00;99.90;;;;;;6185428;23;20499;-75
2021/09/24 05:07:48;;;;;;;12.40;4.05;;;14.00;99.90;;;;;;6186618;23;20480;-74
2021/09/24 05:10:15;;;;;;;17.60;4.40;;;14.00;99.90;;;;;;6185606;23;20557;-74
2021/09/24 05:12:44;;;;;;;15.75;4.45;;;14.00;99.90;;;;;;6185818;23;20192;-73
2021/09/24 05:15:12;;;;;;;13.90;3.30;;;14.00;99.90;;;;;;6185169;23;20169;-73
2021/09/24 05:17:40;;;;;;;9.45;3.60;;;14.10;99.90;;;;;;6186114;23;20172;-72
2021/09/24 05:20:08;;;;;;;10.00;3.00;;;14.10;99.90;;;;;;6185754;23;20164;-73
2021/09/24 05:22:38;;;;;;;12.48;3.45;;;14.10;99.90;;;;;;6186035;23;20538;-71
2021/09/24 05:25:06;;;;;;;19.15;5.63;;;14.10;99.90;;;;;;6185461;23;20161;-72
2021/09/24 05:27:36;;;;;;;14.65;4.60;;;14.20;99.90;;;;;;6185777;23;20160;-74
2021/09/24 05:30:03;;;;;;;14.45;5.57;;;14.20;99.90;;;;;;6186199;23;20164;-70
2021/09/24 05:32:30;;;;;;;6.05;3.10;;;14.20;99.90;;;;;;6185451;23;20695;-71
2021/09/24 05:34:58;;;;;;;11.05;4.53;;;14.20;99.90;;;;;;6185285;23;20169;-72
2021/09/24 05:37:26;;;;;;;16.45;3.60;;;14.30;99.90;;;;;;6185706;23;20207;-72
2021/09/24 05:39:54;;;;;;;12.18;3.45;;;14.30;99.90;;;;;;6190129;23;20176;-71
2021/09/24 05:42:22;;;;;;;9.95;3.22;;;14.40;99.90;;;;;;6191213;23;20204;-73
2021/09/24 05:44:49;;;;;;;13.02;3.60;;;14.50;99.90;;;;;;6184376;23;20620;-73
2021/09/24 05:47:18;;;;;;;13.73;4.20;;;14.50;99.90;;;;;;6184995;23;20215;-73
2021/09/24 05:49:50;;;;;;;11.82;4.85;;;14.50;99.90;;;;;;6185623;23;20191;-73
2021/09/24 05:52:17;;;;;;;10.93;3.53;;;14.50;99.90;;;;;;6186324;23;20192;-73
2021/09/24 05:54:47;;;;;;;11.20;3.78;;;14.60;99.90;;;;;;6186391;23;20183;-73
2021/09/24 05:57:15;;;;;;;15.88;3.90;;;14.70;99.90;;;;;;6185758;23;20161;-74
2021/09/24 05:59:42;;;;;;;10.38;4.05;;;14.80;99.90;;;;;;6186101;23;20160;-73
2021/09/24 06:02:10;;;;;;;16.52;4.32;;;14.80;99.90;;;;;;6185804;23;20278;-74
2021/09/24 06:04:37;;;;;;;17.38;4.72;;;14.90;99.90;;;;;;6186045;23;20240;-73
2021/09/24 06:07:04;;;;;;;12.75;4.65;;;14.90;99.90;;;;;;6185291;23;20175;-73
2021/09/24 06:09:32;;;;;;;16.33;4.65;;;14.90;99.90;;;;;;6185645;23;20182;-73
2021/09/24 06:11:59;;;;;;;17.50;4.60;;;15.00;99.90;;;;;;6185386;23;20271;-73
2021/09/24 06:14:27;;;;;;;13.15;3.47;;;15.20;99.90;;;;;;6186072;23;20161;-73
2021/09/24 06:16:54;;;;;;;12.13;4.07;;;15.30;99.90;;;;;;6184524;23;20164;-73
2021/09/24 06:19:23;;;;;;;16.15;5.50;;;15.40;99.90;;;;;;6186409;23;20487;-73
2021/09/24 06:21:51;;;;;;;15.10;3.78;;;15.30;99.90;;;;;;6185058;23;20633;-73
2021/09/24 06:24:19;;;;;;;9.77;4.53;;;15.30;99.90;;;;;;6185772;23;20219;-72
2021/09/24 06:26:46;;;;;;;15.00;5.30;;;15.30;99.90;;;;;;6184573;23;20194;-74
2021/09/24 06:29:14;;;;;;;22.17;5.78;;;15.30;99.90;;;;;;6185657;23;20171;-73
2021/09/24 06:31:42;;;;;;;19.13;6.82;;;15.30;99.90;;;;;;6185293;23;20594;-73
2021/09/24 06:34:09;;;;;;;11.65;4.10;;;15.30;99.90;;;;;;6185661;23;20169;-73
2021/09/24 06:36:37;;;;;;;6.78;3.17;;;15.30;99.90;;;;;;6185188;23;20165;-73
2021/09/24 06:39:04;;;;;;;12.60;3.58;;;15.30;99.90;;;;;;6185515;23;20161;-73
2021/09/24 06:41:31;;;;;;;12.15;4.28;;;15.30;99.90;;;;;;6185604;23;20693;-73
2021/09/24 06:43:59;;;;;;;8.43;4.18;;;15.40;99.90;;;;;;6185289;23;20161;-74
2021/09/24 06:46:26;;;;;;;15.63;4.38;;;15.30;99.90;;;;;;6185016;23;20695;-72
2021/09/24 06:48:54;;;;;;;7.43;3.50;;;15.40;99.90;;;;;;6185741;23;20196;-73
2021/09/24 06:51:22;;;;;;;8.40;3.88;;;15.50;99.90;;;;;;6185172;23;20168;-74
2021/09/24 06:53:49;;;;;;;15.45;3.92;;;15.60;99.90;;;;;;6185758;23;20164;-74
2021/09/24 06:56:18;;;;;;;7.55;3.15;;;15.60;99.90;;;;;;6184187;23;20182;-73
2021/09/24 06:58:45;;;;;;;10.65;3.90;;;15.50;99.90;;;;;;6184820;23;20161;-74
2021/09/24 07:01:13;;;;;;;11.35;4.35;;;15.60;99.90;;;;;;6185355;23;20519;-73
2021/09/24 07:03:40;;;;;;;9.93;3.25;;;15.60;99.90;;;;;;6185151;23;20189;-73
2021/09/24 07:06:10;;;;;;;11.95;4.93;;;15.60;99.90;;;;;;6184328;23;20192;-74
2021/09/24 07:08:37;;;;;;;9.82;4.47;;;15.60;99.90;;;;;;6185046;23;20162;-72
2021/09/24 07:11:05;;;;;;;10.38;4.97;;;15.80;99.90;;;;;;6185179;23;20162;-73
2021/09/24 07:13:32;;;;;;;11.43;4.13;;;16.00;99.90;;;;;;6185549;23;20219;-73
2021/09/24 07:15:59;;;;;;;7.32;2.80;;;16.10;99.90;;;;;;6184771;23;20162;-73
2021/09/24 07:18:26;;;;;;;5.45;3.30;;;16.30;99.90;;;;;;6185441;23;20165;-75
2021/09/24 07:20:54;;;;;;;7.60;2.80;;;16.50;99.90;;;;;;6184825;23;20168;-74
2021/09/24 07:23:22;;;;;;;5.20;2.70;;;16.80;99.90;;;;;;6185226;23;20570;-74
2021/09/24 07:25:50;;;;;;;8.20;3.20;;;17.00;99.90;;;;;;6184307;23;20403;-75
2021/09/24 07:28:17;;;;;;;7.33;4.03;;;17.10;99.90;;;;;;6182103;23;20393;-75
2021/09/24 07:30:45;;;;;;;7.23;2.43;;;17.30;99.90;;;;;;6184888;23;20715;-75
2021/09/24 07:33:12;;;;;;;17.77;3.97;;;17.40;99.90;;;;;;6183693;23;20481;-75
2021/09/24 07:35:40;;;;;;;6.63;2.60;;;17.40;99.90;;;;;;6184654;23;20428;-75
2021/09/24 07:38:07;;;;;;;10.50;3.67;;;17.40;99.90;;;;;;6185663;23;20170;-75
2021/09/24 07:40:36;;;;;;;10.10;4.47;;;17.30;99.90;;;;;;6184676;23;20392;-74
2021/09/24 07:43:03;;;;;;;5.17;2.97;;;17.20;99.90;;;;;;6185063;23;20458;-77
2021/09/24 07:45:31;;;;;;;8.27;3.90;;;17.20;99.90;;;;;;6184517;23;20391;-74
2021/09/24 07:47:58;;;;;;;6.20;2.20;;;17.30;99.90;;;;;;6184754;23;20399;-76
2021/09/24 07:50:25;;;;;;;10.80;3.27;;;17.40;99.90;;;;;;6184861;23;20762;-74
2021/09/24 07:52:52;;;;;;;11.93;4.00;;;17.50;99.90;;;;;;6184107;23;20426;-75
2021/09/24 07:55:19;;;;;;;10.73;4.40;;;17.50;99.90;;;;;;6184165;23;20399;-75
2021/09/24 07:57:51;;;;;;;16.90;3.05;;;17.40;99.90;;;;;;6184643;23;20395;-75
2021/09/24 08:00:18;;;;;;;10.93;3.00;;;17.40;99.90;;;;;;6185005;23;20167;-75
2021/09/24 08:02:48;;;;;;;8.50;3.20;;;17.40;99.90;;;;;;6184943;23;20449;-77
2021/09/24 08:05:15;;;;;;;9.07;3.40;;;17.40;99.90;;;;;;6185072;23;20403;-76
2021/09/24 08:07:42;;;;;;;10.60;3.20;;;17.50;99.90;;;;;;6185827;23;20490;-75
2021/09/24 08:10:10;;;;;;;9.30;3.63;;;17.60;99.90;;;;;;6185630;23;20418;-75
2021/09/24 08:12:45;;;;;;;6.90;3.03;;;17.80;99.90;;;;;;6185164;23;20919;-75
2021/09/24 08:15:15;;;;;;;8.40;3.83;;;17.90;99.90;;;;;;6184782;23;20402;-75
2021/09/24 08:17:42;;;;;;;8.57;3.10;;;18.00;99.90;;;;;;6185016;23;20453;-75
2021/09/24 08:20:11;;;;;;;14.10;3.73;;;17.90;99.90;;;;;;6185156;23;20392;-76
2021/09/24 08:22:39;;;;;;;11.07;2.93;;;17.70;99.90;;;;;;6185098;23;20456;-76
2021/09/24 08:25:09;;;;;;;10.10;4.63;;;17.50;99.90;;;;;;6184168;23;20768;-74
2021/09/24 08:27:40;;;;;;;14.73;5.07;;;17.50;99.90;;;;;;6185049;23;20424;-76
2021/09/24 08:30:10;;;;;;;9.13;3.97;;;17.50;99.90;;;;;;6185266;23;20384;-76
2021/09/24 08:32:41;;;;;;;5.37;4.10;;;17.60;99.90;;;;;;6184445;23;20897;-75
2021/09/24 08:35:10;;;;;;;6.57;4.20;;;17.60;99.90;;;;;;6184561;23;20396;-75
2021/09/24 08:37:38;;;;;;;7.00;3.27;;;17.70;99.90;;;;;;6184383;23;20388;-74
2021/09/24 08:40:08;;;;;;;6.13;3.90;;;17.80;99.90;;;;;;6186250;23;20392;-75
2021/09/24 08:42:38;;;;;;;7.63;5.50;;;17.80;99.90;;;;;;6187016;23;20922;-76
2021/09/24 08:45:07;;;;;;;7.50;4.90;;;17.80;99.90;;;;;;6186265;23;20486;-76
2021/09/24 08:47:38;;;;;;;10.00;4.80;;;17.80;99.90;;;;;;6187246;23;20426;-75
2021/09/24 08:50:11;;;;;;;14.47;7.87;;;17.80;99.90;;;;;;6187349;23;20497;-76
2021/09/24 08:52:39;;;;;;;11.37;5.57;;;17.80;99.90;;;;;;6188498;23;20481;-77
2021/09/24 08:55:09;;;;;;;10.40;7.30;;;17.90;99.90;;;;;;6187563;23;20387;-77
2021/09/24 08:57:38;;;;;;;15.97;6.40;;;17.90;99.90;;;;;;6187336;23;20440;-77
2021/09/24 09:00:07;;;;;;;8.37;6.50;;;18.00;99.90;;;;;;6187870;23;20465;-77
2021/09/24 09:02:58;;;;;;;11.67;9.00;;;18.00;99.90;;;;;;6186414;23;20559;-76
2021/09/24 09:05:29;;;;;;;10.03;8.20;;;17.90;99.90;;;;;;6187252;23;20419;-78
2021/09/24 09:08:08;;;;;;;14.17;8.00;;;17.70;99.90;;;;;;6189364;23;20395;-78
2021/09/24 09:10:52;;;;;;;15.10;8.47;;;17.70;99.90;;;;;;6190316;23;20387;-77
2021/09/24 09:13:21;;;;;;;15.60;6.83;;;17.90;99.90;;;;;;6186038;23;20498;-77
2021/09/24 09:15:58;;;;;;;9.50;8.17;;;18.00;99.90;;;;;;6187160;23;20427;-78
2021/09/24 09:18:26;;;;;;;13.87;7.53;;;18.00;99.90;;;;;;6186985;23;20446;-77
2021/09/24 09:20:56;;;;;;;15.53;8.17;;;17.90;99.90;;;;;;6187096;23;20607;-75
2021/09/24 09:23:26;;;;;;;10.80;6.20;;;18.00;99.90;;;;;;6188383;23;20487;-77
2021/09/24 09:26:05;;;;;;;13.30;6.00;;;18.20;99.90;;;;;;6188911;23;20897;-76
2021/09/24 09:28:37;;;;;;;13.03;7.47;;;18.20;99.90;;;;;;6186913;23;20808;-76
2021/09/24 09:31:17;;;;;;;11.13;5.00;;;18.30;99.90;;;;;;6187377;23;20411;-76
2021/09/24 09:33:45;;;;;;;9.90;5.53;;;18.50;99.90;;;;;;6187260;23;20446;-76
2021/09/24 09:36:23;;;;;;;6.90;5.03;;;18.70;99.90;;;;;;6186768;23;20890;-76
2021/09/24 09:38:50;;;;;;;8.07;4.80;;;18.60;99.90;;;;;;6186828;23;20751;-77
2021/09/24 09:41:27;;;;;;;9.00;5.80;;;19.10;99.90;;;;;;6187252;23;20434;-75
2021/09/24 09:43:58;;;;;;;9.03;5.13;;;19.40;99.90;;;;;;6185962;23;20435;-76
2021/09/24 09:46:31;;;;;;;7.57;5.23;;;19.80;99.90;;;;;;6187722;23;20721;-76
2021/09/24 09:49:14;;;;;;;8.97;5.57;;;20.20;99.90;;;;;;6185720;23;20443;-76
2021/09/24 09:51:44;;;;;;;18.77;10.20;;;20.10;99.90;;;;;;6186578;23;20475;-76
2021/09/24 09:54:25;;;;;;;17.93;9.27;;;20.10;99.90;;;;;;6186252;23;20407;-73
2021/09/24 09:56:53;;;;;;;9.50;6.93;;;20.10;99.90;;;;;;6186246;23;20398;-75
2021/09/24 09:59:27;;;;;;;15.13;6.20;;;20.20;99.90;;;;;;6199070;23;20479;-74
2021/09/24 10:02:13;;;;;;;8.33;5.63;;;20.00;99.90;;;;;;6201011;23;20470;-76
2021/09/24 10:04:43;;;;;;;7.80;6.03;;;19.40;99.90;;;;;;6187032;23;20748;-76
2021/09/24 10:07:17;;;;;;;6.77;5.53;;;19.20;99.90;;;;;;6187205;23;20442;-77
2021/09/24 10:09:46;;;;;;;13.90;7.20;;;19.10;99.90;;;;;;6186180;23;20447;-75
2021/09/24 10:12:22;;;;;;;20.33;13.20;;;18.90;99.90;;;;;;6185607;23;20901;-74
2021/09/24 10:14:51;;;;;;;8.97;6.13;;;18.90;99.90;;;;;;6186609;23;20462;-74
2021/09/24 10:17:19;;;;;;;9.77;6.20;;;18.90;99.90;;;;;;6185560;23;20885;-74
2021/09/24 10:19:48;;;;;;;10.20;6.20;;;19.00;99.90;;;;;;6185454;23;20401;-76
2021/09/24 10:22:17;;;;;;;16.70;7.30;;;19.00;99.90;;;;;;6185872;23;20428;-73
2021/09/24 10:24:45;;;;;;;15.13;6.23;;;19.20;99.90;;;;;;6186709;23;20673;-76
2021/09/24 10:27:16;;;;;;;12.17;5.80;;;19.50;99.90;;;;;;6185406;23;20809;-75
2021/09/24 10:29:46;;;;;;;7.37;5.50;;;19.70;99.90;;;;;;6185789;23;20898;-75
2021/09/24 10:32:16;;;;;;;9.40;7.27;;;19.90;99.90;;;;;;6186023;23;20510;-75
2021/09/24 10:34:55;;;;;;;8.47;5.20;;;20.00;99.90;;;;;;6185492;23;20391;-74
2021/09/24 10:37:24;;;;;;;7.23;5.53;;;20.20;99.90;;;;;;6185128;23;20508;-74
2021/09/24 10:39:58;;;;;;;9.60;6.20;;;20.30;99.90;;;;;;6185809;23;20406;-73
2021/09/24 10:42:51;;;;;;;18.40;6.80;;;20.40;99.90;;;;;;6185356;23;20766;-74
2021/09/24 10:45:32;;;;;;;6.70;6.10;;;20.50;99.90;;;;;;6182369;23;20903;-75
2021/09/24 10:48:03;;;;;;;8.60;5.60;;;20.50;99.90;;;;;;6184272;23;20388;-76
2021/09/24 10:51:06;;;;;;;10.87;5.87;;;20.50;99.90;;;;;;6185551;23;20537;-74
2021/09/24 10:53:46;;;;;;;10.97;4.67;;;20.40;99.90;;;;;;6185127;23;20392;-73
2021/09/24 10:56:33;;;;;;;13.97;5.80;;;20.40;99.90;;;;;;6185113;23;20418;-73
2021/09/24 10:59:25;;;;;;;7.00;4.70;;;20.30;99.90;;;;;;6185721;23;20474;-76
2021/09/24 11:01:52;;;;;;;6.90;4.60;;;20.40;99.90;;;;;;6184657;23;20512;-75
2021/09/24 11:04:19;;;;;;;7.90;5.03;;;20.20;99.90;;;;;;6185225;23;21005;-77
2021/09/24 11:06:51;;;;;;;8.73;4.87;;;20.20;99.90;;;;;;6185160;23;20421;-76
2021/09/24 11:09:27;;;;;;;10.97;4.50;;;20.10;99.90;;;;;;6185431;23;20396;-75
2021/09/24 11:12:03;;;;;;;10.30;4.17;;;20.20;99.90;;;;;;6186131;23;20515;-76
2021/09/24 11:14:33;;;;;;;13.50;4.03;;;20.10;99.90;;;;;;6185123;23;20392;-75
2021/09/24 11:17:02;;;;;;;7.93;4.47;;;19.80;99.90;;;;;;6185031;23;20384;-74
2021/09/24 11:19:42;;;;;;;8.47;4.10;;;20.00;99.90;;;;;;6185161;23;20478;-74
2021/09/24 11:22:13;;;;;;;6.67;3.50;;;20.10;99.90;;;;;;6185364;23;20759;-78
2021/09/24 11:24:44;;;;;;;8.30;3.97;;;20.10;99.90;;;;;;6185824;23;20437;-75
2021/09/24 11:27:14;;;;;;;10.93;5.00;;;20.00;99.90;;;;;;6184559;23;20454;-75
2021/09/24 11:29:43;;;;;;;5.70;3.97;;;20.00;99.90;;;;;;6185186;23;20475;-74
2021/09/24 11:32:12;;;;;;;8.50;5.40;;;20.00;99.90;;;;;;6184514;23;20917;-75
2021/09/24 11:34:56;;;;;;;12.03;4.93;;;20.00;99.90;;;;;;6184873;23;20388;-75
2021/09/24 11:37:24;;;;;;;11.80;5.10;;;19.90;99.90;;;;;;6184401;23;20396;-80
2021/09/24 11:39:59;;;;;;;6.57;4.83;;;19.70;99.90;;;;;;6184884;23;20415;-75
2021/09/24 11:42:27;;;;;;;7.37;5.50;;;19.70;99.90;;;;;;6185599;23;20431;-76
2021/09/24 11:44:56;;;;;;;9.50;5.60;;;19.60;99.90;;;;;;6184687;23;20424;-77
2021/09/24 11:47:26;;;;;;;8.83;5.90;;;19.70;99.90;;;;;;6185018;23;20392;-76
2021/09/24 11:49:55;;;;;;;13.00;6.57;;;19.70;99.90;;;;;;6185126;23;20478;-75
2021/09/24 11:52:35;;;;;;;9.27;6.43;;;19.70;99.90;;;;;;6186157;23;20526;-76
2021/09/24 11:55:19;;;;;;;13.60;5.73;;;19.70;99.90;;;;;;6185376;23;20411;-74
2021/09/24 11:57:58;;;;;;;12.60;6.30;;;19.80;99.90;;;;;;6186255;23;20844;-77
2021/09/24 12:00:26;;;;;;;7.77;6.20;;;19.70;99.90;;;;;;6185103;23;20661;-75
2021/09/24 12:03:07;;;;;;;9.97;7.23;;;19.70;99.90;;;;;;6184525;23;20434;-76
2021/09/24 12:05:34;;;;;;;8.80;6.73;;;19.60;99.90;;;;;;6183734;23;20422;-76
2021/09/24 12:08:01;;;;;;;11.33;6.67;;;19.40;99.90;;;;;;6185995;23;20392;-76
2021/09/24 12:10:31;;;;;;;12.27;7.67;;;19.40;99.90;;;;;;6184722;23;20391;-74
2021/09/24 12:13:09;;;;;;;11.37;7.63;;;19.30;99.90;;;;;;6184468;23;20457;-75
2021/09/24 12:15:57;;;;;;;14.17;7.40;;;19.30;99.90;;;;;;6183805;23;20395;-77
2021/09/24 12:18:26;;;;;;;9.63;7.53;;;19.20;99.90;;;;;;6184771;23;20479;-75
2021/09/24 12:21:01;;;;;;;8.70;7.37;;;19.20;99.90;;;;;;6184230;23;20454;-77
2021/09/24 12:23:29;;;;;;;11.63;8.03;;;19.20;99.90;;;;;;6185031;23;20447;-75
2021/09/24 12:26:01;;;;;;;15.07;7.67;;;19.20;99.90;;;;;;6184232;23;20801;-73
2021/09/24 12:28:28;;;;;;;10.97;7.07;;;19.30;99.90;;;;;;6185347;23;20399;-76
2021/09/24 12:30:55;;;;;;;13.40;8.10;;;19.30;99.90;;;;;;6185450;23;20396;-75
2021/09/24 12:33:25;;;;;;;12.93;8.87;;;19.30;99.90;;;;;;6184458;23;20415;-75
2021/09/24 12:36:03;;;;;;;14.83;7.87;;;19.20;99.90;;;;;;6185142;23;20416;-76
2021/09/24 12:38:32;;;;;;;11.40;8.33;;;19.10;99.90;;;;;;6184339;23;20396;-75
2021/09/24 12:41:18;;;;;;;15.40;8.03;;;19.10;99.90;;;;;;6184449;23;20412;-76
2021/09/24 12:43:47;;;;;;;10.80;8.77;;;19.20;99.90;;;;;;6182992;23;20467;-75
2021/09/24 12:46:16;;;;;;;12.70;8.20;;;19.20;99.90;;;;;;6184385;23;20479;-76
2021/09/24 12:48:46;;;;;;;10.50;9.07;;;19.30;99.90;;;;;;6185469;23;20392;-76
2021/09/24 12:51:16;;;;;;;13.77;8.10;;;19.40;99.90;;;;;;6185300;23;20434;-75